Time;durP1;ratioP1;P1;durP2;ratioP2;P2;SDS_P1;SDS_P2;PMS_P1;PMS_P2;Temp;Humidity;BMP_temperature;BMP_pressure;BME280_temperature;BME280_humidity;BME280_pressure;Samples;Min_cycle;Max_cycle;Signal;HPM_P1;HPM_P2
2021/08/29 00:00:31;;;;;;;;;;;23.50;57.50;;;;;;502053;237;2198;-43
2021/08/29 00:02:33;;;;;;;;;;;23.50;57.50;;;;;;502053;237;1118;-43
2021/08/29 00:04:34;;;;;;;;;;;23.50;57.50;;;;;;502074;237;1063;-43
2021/08/29 00:06:35;;;;;;;;;;;23.50;57.60;;;;;;502077;237;1239;-43
2021/08/29 00:08:37;;;;;;;;;;;23.50;57.60;;;;;;501884;237;1237;-43
2021/08/29 00:10:38;;;;;;;;;;;23.50;57.60;;;;;;502367;237;1266;-43
2021/08/29 00:12:41;;;;;;;;;;;23.50;57.50;;;;;;501912;237;1131;-43
2021/08/29 00:14:41;;;;;;;;;;;23.50;57.50;;;;;;501853;237;1427;-43
2021/08/29 00:16:42;;;;;;;;;;;23.40;57.50;;;;;;502373;237;1381;-43
2021/08/29 00:18:43;;;;;;;;;;;23.50;57.50;;;;;;502167;237;1009;-43
2021/08/29 00:20:46;;;;;;;;;;;23.50;57.60;;;;;;501911;237;2195;-43
2021/08/29 00:22:46;;;;;;;;;;;23.40;57.50;;;;;;501846;237;2324;-43
2021/08/29 00:24:47;;;;;;;;;;;23.40;57.50;;;;;;502242;237;1028;-43
2021/08/29 00:26:49;;;;;;;;;;;23.40;57.50;;;;;;501923;237;1194;-43
2021/08/29 00:28:50;;;;;;;;;;;23.40;57.50;;;;;;502360;237;1040;-43
2021/08/29 00:30:51;;;;;;;;;;;23.40;57.50;;;;;;502088;237;1251;-43
2021/08/29 00:32:53;;;;;;;;;;;23.40;57.50;;;;;;502175;237;1025;-43
2021/08/29 00:34:54;;;;;;;;;;;23.40;57.40;;;;;;502460;237;1025;-43
2021/08/29 00:36:55;;;;;;;;;;;23.40;57.50;;;;;;502156;237;1273;-43
2021/08/29 00:38:57;;;;;;;;;;;23.40;57.50;;;;;;502435;237;1016;-43
2021/08/29 00:40:58;;;;;;;;;;;23.50;57.50;;;;;;501917;238;2191;-43
2021/08/29 00:42:59;;;;;;;;;;;23.40;57.50;;;;;;502457;237;1175;-42
2021/08/29 00:45:00;;;;;;;;;;;23.40;57.50;;;;;;502355;237;1257;-43
2021/08/29 00:47:02;;;;;;;;;;;23.40;57.50;;;;;;502317;237;1174;-43
2021/08/29 00:49:03;;;;;;;;;;;23.40;57.50;;;;;;502148;237;1216;-43
2021/08/29 00:51:04;;;;;;;;;;;23.40;57.50;;;;;;502407;237;1220;-43
2021/08/29 00:53:06;;;;;;;;;;;23.40;57.50;;;;;;502190;237;1192;-43
2021/08/29 00:55:09;;;;;;;;;;;23.40;57.50;;;;;;501976;238;1186;-43
2021/08/29 00:57:09;;;;;;;;;;;23.40;57.40;;;;;;502051;237;2243;-43
2021/08/29 00:59:10;;;;;;;;;;;23.50;57.20;;;;;;502005;238;1061;-43
2021/08/29 01:01:11;;;;;;;;;;;23.60;57.00;;;;;;501959;237;2128;-43
2021/08/29 01:03:13;;;;;;;;;;;23.60;56.80;;;;;;502037;237;1238;-43
2021/08/29 01:05:14;;;;;;;;;;;23.70;56.60;;;;;;501997;237;1052;-43
2021/08/29 01:07:15;;;;;;;;;;;23.80;56.50;;;;;;501853;238;1281;-43
2021/08/29 01:09:17;;;;;;;;;;;23.80;56.40;;;;;;502286;237;1158;-43
2021/08/29 01:11:18;;;;;;;;;;;23.90;56.30;;;;;;501839;238;1274;-43
2021/08/29 01:13:19;;;;;;;;;;;23.90;56.20;;;;;;502024;237;1049;-43
2021/08/29 01:15:20;;;;;;;;;;;23.90;56.10;;;;;;501972;238;1508;-43
2021/08/29 01:17:22;;;;;;;;;;;24.00;56.10;;;;;;502118;237;1083;-43
2021/08/29 01:19:25;;;;;;;;;;;24.00;56.00;;;;;;502030;237;1048;-43
2021/08/29 01:21:24;;;;;;;;;;;24.00;55.90;;;;;;501890;237;2238;-43
2021/08/29 01:23:26;;;;;;;;;;;24.10;55.90;;;;;;502391;237;2524;-43
2021/08/29 01:25:27;;;;;;;;;;;24.10;55.80;;;;;;502437;237;1162;-43
2021/08/29 01:27:28;;;;;;;;;;;24.10;55.70;;;;;;502232;237;1046;-43
2021/08/29 01:29:30;;;;;;;;;;;24.10;55.70;;;;;;502513;237;1039;-43
2021/08/29 01:31:31;;;;;;;;;;;24.10;55.60;;;;;;502097;237;1156;-43
2021/08/29 01:33:32;;;;;;;;;;;24.20;55.60;;;;;;502218;237;1165;-43
2021/08/29 01:35:34;;;;;;;;;;;24.20;55.60;;;;;;502475;237;1076;-43
2021/08/29 01:37:35;;;;;;;;;;;24.20;55.50;;;;;;501886;237;1424;-43
2021/08/29 01:39:36;;;;;;;;;;;24.20;55.50;;;;;;502145;237;1052;-43
2021/08/29 01:41:38;;;;;;;;;;;24.30;55.40;;;;;;501855;237;2235;-43
2021/08/29 01:43:39;;;;;;;;;;;24.30;55.40;;;;;;502455;237;1126;-43
2021/08/29 01:45:40;;;;;;;;;;;24.30;55.30;;;;;;501923;237;1241;-43
2021/08/29 01:47:42;;;;;;;;;;;24.30;55.30;;;;;;501898;237;1184;-43
2021/08/29 01:49:43;;;;;;;;;;;24.30;55.20;;;;;;502011;237;1054;-43
2021/08/29 01:51:44;;;;;;;;;;;24.30;55.20;;;;;;502469;235;1318;-43
2021/08/29 01:53:46;;;;;;;;;;;24.40;55.20;;;;;;502500;237;1201;-43
2021/08/29 01:55:49;;;;;;;;;;;24.40;55.20;;;;;;502024;237;1703;-43
2021/08/29 01:57:48;;;;;;;;;;;24.40;55.20;;;;;;501944;237;2262;-43
2021/08/29 01:59:50;;;;;;;;;;;24.40;55.20;;;;;;502037;237;1102;-43
2021/08/29 02:01:51;;;;;;;;;;;24.40;55.20;;;;;;501959;237;2136;-43
2021/08/29 02:03:52;;;;;;;;;;;24.40;55.10;;;;;;502020;237;1224;-43
2021/08/29 02:05:54;;;;;;;;;;;24.50;55.20;;;;;;502415;237;1168;-43
2021/08/29 02:07:55;;;;;;;;;;;24.50;55.10;;;;;;502040;237;1159;-43
2021/08/29 02:09:56;;;;;;;;;;;24.50;55.00;;;;;;502474;237;1067;-43
2021/08/29 02:11:58;;;;;;;;;;;24.50;55.10;;;;;;502291;237;1239;-43
2021/08/29 02:13:59;;;;;;;;;;;24.50;55.10;;;;;;502474;237;1029;-43
2021/08/29 02:16:00;;;;;;;;;;;24.50;55.10;;;;;;501959;237;1196;-43
2021/08/29 02:18:02;;;;;;;;;;;24.50;55.10;;;;;;502450;237;1056;-43
2021/08/29 02:20:03;;;;;;;;;;;24.50;55.00;;;;;;501999;237;1037;-43
2021/08/29 02:22:04;;;;;;;;;;;24.60;55.00;;;;;;501927;237;2182;-43
2021/08/29 02:24:06;;;;;;;;;;;24.60;55.00;;;;;;502353;237;1050;-42
2021/08/29 02:26:07;;;;;;;;;;;24.60;55.00;;;;;;501941;236;1494;-43
2021/08/29 02:28:08;;;;;;;;;;;24.60;55.00;;;;;;502501;237;1070;-43
2021/08/29 02:30:09;;;;;;;;;;;24.60;55.00;;;;;;502385;237;1179;-43
2021/08/29 02:32:11;;;;;;;;;;;24.60;55.00;;;;;;501941;237;1182;-43
2021/08/29 02:34:12;;;;;;;;;;;24.60;55.00;;;;;;502489;237;1012;-43
2021/08/29 02:36:13;;;;;;;;;;;24.60;54.90;;;;;;502221;237;1472;-43
2021/08/29 02:38:15;;;;;;;;;;;24.60;55.00;;;;;;501943;237;1161;-43
2021/08/29 02:40:16;;;;;;;;;;;24.60;55.00;;;;;;502415;237;2143;-43
2021/08/29 02:42:17;;;;;;;;;;;24.60;55.00;;;;;;501959;237;1181;-43
2021/08/29 02:44:19;;;;;;;;;;;24.60;54.90;;;;;;502515;237;986;-43
2021/08/29 02:46:20;;;;;;;;;;;24.70;55.00;;;;;;501935;235;1093;-43
2021/08/29 02:48:21;;;;;;;;;;;24.60;54.90;;;;;;502465;237;1174;-43
2021/08/29 02:50:23;;;;;;;;;;;24.60;54.90;;;;;;502167;237;1075;-43
2021/08/29 02:52:24;;;;;;;;;;;24.70;55.00;;;;;;502096;237;1336;-43
2021/08/29 02:54:25;;;;;;;;;;;24.70;54.90;;;;;;502432;237;1183;-43
2021/08/29 02:56:27;;;;;;;;;;;24.70;54.90;;;;;;501971;237;1174;-43
2021/08/29 02:58:28;;;;;;;;;;;24.70;54.90;;;;;;502117;237;1009;-43
2021/08/29 03:00:29;;;;;;;;;;;24.70;55.00;;;;;;502062;237;2167;-43
2021/08/29 03:02:31;;;;;;;;;;;24.70;55.00;;;;;;501985;237;1493;-43
2021/08/29 03:04:32;;;;;;;;;;;24.70;54.90;;;;;;501988;237;1079;-43
2021/08/29 03:06:33;;;;;;;;;;;24.70;54.90;;;;;;502305;237;1183;-43
2021/08/29 03:08:34;;;;;;;;;;;24.80;54.90;;;;;;502433;237;1044;-43
2021/08/29 03:10:36;;;;;;;;;;;24.70;54.80;;;;;;502141;237;1085;-43
2021/08/29 03:12:37;;;;;;;;;;;24.70;54.90;;;;;;501945;237;1245;-43
2021/08/29 03:14:39;;;;;;;;;;;24.80;54.90;;;;;;502471;237;1024;-43
2021/08/29 03:16:40;;;;;;;;;;;24.80;54.90;;;;;;502002;237;1156;-43
2021/08/29 03:18:41;;;;;;;;;;;24.70;54.90;;;;;;502148;237;1087;-43
2021/08/29 03:20:42;;;;;;;;;;;24.70;54.80;;;;;;502464;237;2124;-43
2021/08/29 03:22:44;;;;;;;;;;;24.80;54.90;;;;;;501925;237;1263;-43
2021/08/29 03:24:45;;;;;;;;;;;24.80;54.90;;;;;;501979;237;1056;-43
2021/08/29 03:26:46;;;;;;;;;;;24.80;54.80;;;;;;501930;237;1325;-43
2021/08/29 03:28:48;;;;;;;;;;;24.80;54.90;;;;;;501987;237;1059;-43
2021/08/29 03:30:49;;;;;;;;;;;24.80;54.80;;;;;;502325;237;1336;-43
2021/08/29 03:32:50;;;;;;;;;;;24.80;54.80;;;;;;502071;237;1310;-43
2021/08/29 03:34:52;;;;;;;;;;;24.80;54.80;;;;;;502351;237;1080;-43
2021/08/29 03:36:53;;;;;;;;;;;24.80;54.80;;;;;;502336;237;1625;-43
2021/08/29 03:38:54;;;;;;;;;;;24.80;54.80;;;;;;502465;237;1256;-43
2021/08/29 03:40:56;;;;;;;;;;;24.80;54.80;;;;;;502085;237;2187;-43
2021/08/29 03:42:57;;;;;;;;;;;24.80;54.80;;;;;;502274;237;1189;-43
2021/08/29 03:44:58;;;;;;;;;;;24.80;54.80;;;;;;502444;237;1136;-43
2021/08/29 03:47:00;;;;;;;;;;;24.90;54.80;;;;;;502018;237;1588;-43
2021/08/29 03:49:01;;;;;;;;;;;24.80;54.80;;;;;;502394;237;1146;-43
2021/08/29 03:51:02;;;;;;;;;;;24.80;54.70;;;;;;501869;237;1270;-43
2021/08/29 03:53:03;;;;;;;;;;;24.80;54.80;;;;;;501957;237;1138;-43
2021/08/29 03:55:05;;;;;;;;;;;24.80;54.80;;;;;;501980;237;1069;-43
2021/08/29 03:57:06;;;;;;;;;;;24.80;54.80;;;;;;502066;237;1606;-43
2021/08/29 03:59:07;;;;;;;;;;;24.80;54.80;;;;;;502147;237;1171;-43
2021/08/29 04:01:09;;;;;;;;;;;24.80;54.80;;;;;;502293;237;2194;-43
2021/08/29 04:03:10;;;;;;;;;;;24.90;54.80;;;;;;502153;237;1216;-43
2021/08/29 04:05:11;;;;;;;;;;;24.90;54.80;;;;;;502472;237;978;-43
2021/08/29 04:07:13;;;;;;;;;;;24.90;54.80;;;;;;502389;237;1045;-43
2021/08/29 04:09:14;;;;;;;;;;;24.90;54.80;;;;;;502461;237;1020;-43
2021/08/29 04:11:15;;;;;;;;;;;24.80;54.70;;;;;;502155;237;1288;-43
2021/08/29 04:13:17;;;;;;;;;;;24.90;54.70;;;;;;502340;237;1059;-43
2021/08/29 04:15:18;;;;;;;;;;;24.90;54.70;;;;;;502062;237;1042;-43
2021/08/29 04:17:19;;;;;;;;;;;24.90;54.80;;;;;;501922;237;1281;-43
2021/08/29 04:19:21;;;;;;;;;;;24.90;54.80;;;;;;502047;237;1053;-43
2021/08/29 04:21:22;;;;;;;;;;;24.90;54.80;;;;;;501870;237;2196;-43
2021/08/29 04:23:23;;;;;;;;;;;24.90;54.80;;;;;;501940;237;1317;-43
2021/08/29 04:25:25;;;;;;;;;;;24.90;54.80;;;;;;502436;237;1179;-43
2021/08/29 04:27:26;;;;;;;;;;;24.90;54.70;;;;;;501998;237;1199;-43
2021/08/29 04:29:27;;;;;;;;;;;24.90;54.80;;;;;;502017;238;1110;-43
2021/08/29 04:31:29;;;;;;;;;;;24.90;54.80;;;;;;501919;237;1254;-43
2021/08/29 04:33:30;;;;;;;;;;;24.90;54.80;;;;;;501964;238;1356;-43
2021/08/29 04:35:31;;;;;;;;;;;24.90;54.80;;;;;;502411;237;1164;-43
2021/08/29 04:37:33;;;;;;;;;;;24.90;54.80;;;;;;501934;237;1144;-43
2021/08/29 04:39:34;;;;;;;;;;;24.90;54.80;;;;;;502012;237;1219;-43
2021/08/29 04:41:35;;;;;;;;;;;24.90;54.90;;;;;;501816;234;2175;-43
2021/08/29 04:43:36;;;;;;;;;;;24.90;54.80;;;;;;502431;237;1037;-43
2021/08/29 04:45:38;;;;;;;;;;;24.90;54.80;;;;;;502431;237;1040;-43
2021/08/29 04:47:39;;;;;;;;;;;24.90;54.80;;;;;;501953;237;1137;-43
2021/08/29 04:49:41;;;;;;;;;;;24.90;54.80;;;;;;502024;238;1202;-43
2021/08/29 04:51:42;;;;;;;;;;;24.90;54.70;;;;;;502007;237;1348;-43
2021/08/29 04:53:43;;;;;;;;;;;24.90;54.70;;;;;;502006;237;1159;-43
2021/08/29 04:55:44;;;;;;;;;;;24.90;54.80;;;;;;502267;237;1295;-43
2021/08/29 04:57:46;;;;;;;;;;;24.90;54.80;;;;;;502137;237;1112;-43
2021/08/29 04:59:47;;;;;;;;;;;24.90;54.70;;;;;;502457;237;1032;-43
2021/08/29 05:01:48;;;;;;;;;;;24.90;54.80;;;;;;502363;237;2120;-43
2021/08/29 05:03:50;;;;;;;;;;;24.90;54.80;;;;;;502229;237;1177;-43
2021/08/29 05:05:51;;;;;;;;;;;24.90;54.80;;;;;;502500;237;1086;-43
2021/08/29 05:07:52;;;;;;;;;;;24.90;54.80;;;;;;502453;237;1169;-43
2021/08/29 05:09:54;;;;;;;;;;;25.00;54.80;;;;;;502507;237;1028;-43
2021/08/29 05:11:55;;;;;;;;;;;25.00;54.80;;;;;;502073;237;1692;-43
2021/08/29 05:13:56;;;;;;;;;;;25.00;54.80;;;;;;502454;237;1057;-43
2021/08/29 05:15:57;;;;;;;;;;;25.00;54.80;;;;;;502075;237;1490;-43
2021/08/29 05:17:59;;;;;;;;;;;25.00;54.80;;;;;;501967;237;1164;-43
2021/08/29 05:20:00;;;;;;;;;;;25.00;54.80;;;;;;502458;237;1065;-43
2021/08/29 05:22:02;;;;;;;;;;;25.00;54.80;;;;;;502211;237;2178;-43
2021/08/29 05:24:03;;;;;;;;;;;25.00;54.80;;;;;;502227;237;1565;-43
2021/08/29 05:26:04;;;;;;;;;;;25.00;54.80;;;;;;502233;237;1162;-43
2021/08/29 05:28:05;;;;;;;;;;;25.00;54.80;;;;;;502434;237;1199;-43
2021/08/29 05:30:07;;;;;;;;;;;25.00;54.80;;;;;;502509;237;1051;-43
2021/08/29 05:32:08;;;;;;;;;;;25.00;54.80;;;;;;501933;237;1602;-43
2021/08/29 05:34:09;;;;;;;;;;;25.00;54.80;;;;;;501969;237;1167;-43
2021/08/29 05:36:11;;;;;;;;;;;25.00;54.80;;;;;;502335;237;1581;-43
2021/08/29 05:38:12;;;;;;;;;;;25.00;54.80;;;;;;502463;237;1242;-43
2021/08/29 05:40:13;;;;;;;;;;;25.00;54.70;;;;;;501960;237;1101;-43
2021/08/29 05:42:15;;;;;;;;;;;25.00;54.70;;;;;;502122;237;2203;-43
2021/08/29 05:44:16;;;;;;;;;;;25.10;54.80;;;;;;502419;237;1307;-43
2021/08/29 05:46:17;;;;;;;;;;;25.00;54.80;;;;;;502437;237;1213;-43
2021/08/29 05:48:19;;;;;;;;;;;25.00;54.80;;;;;;502329;237;1253;-43
2021/08/29 05:50:20;;;;;;;;;;;25.00;54.80;;;;;;502061;237;1060;-43
2021/08/29 05:52:21;;;;;;;;;;;25.00;54.70;;;;;;502020;237;1323;-43
2021/08/29 05:54:23;;;;;;;;;;;25.00;54.80;;;;;;502472;237;1058;-43
2021/08/29 05:56:24;;;;;;;;;;;25.00;54.80;;;;;;501881;237;1153;-43
2021/08/29 05:58:25;;;;;;;;;;;25.00;54.80;;;;;;501973;237;1077;-43
2021/08/29 06:00:27;;;;;;;;;;;25.00;54.80;;;;;;502469;237;1023;-43
2021/08/29 06:02:28;;;;;;;;;;;25.00;54.80;;;;;;502369;237;2120;-43
2021/08/29 06:04:29;;;;;;;;;;;25.00;54.80;;;;;;502010;237;1198;-43
2021/08/29 06:06:33;;;;;;;;;;;25.00;54.80;;;;;;502370;237;2351;-43
2021/08/29 06:08:33;;;;;;;;;;;25.10;54.80;;;;;;501877;237;2221;-43
2021/08/29 06:10:34;;;;;;;;;;;25.10;54.90;;;;;;501945;237;1336;-43
2021/08/29 06:12:35;;;;;;;;;;;25.00;54.80;;;;;;501956;237;1308;-43
2021/08/29 06:14:37;;;;;;;;;;;25.10;54.80;;;;;;502177;237;1231;-43
2021/08/29 06:16:38;;;;;;;;;;;25.10;54.80;;;;;;502133;237;1300;-43
2021/08/29 06:18:39;;;;;;;;;;;25.10;54.80;;;;;;501991;237;1105;-43
2021/08/29 06:20:41;;;;;;;;;;;25.10;54.80;;;;;;502008;237;1224;-43
2021/08/29 06:22:42;;;;;;;;;;;25.10;54.80;;;;;;502060;237;2176;-43
2021/08/29 06:24:43;;;;;;;;;;;25.10;54.80;;;;;;502455;237;999;-43
2021/08/29 06:26:44;;;;;;;;;;;25.10;54.80;;;;;;501953;235;1434;-43
2021/08/29 06:28:46;;;;;;;;;;;25.10;54.80;;;;;;502200;237;1213;-43
2021/08/29 06:30:47;;;;;;;;;;;25.10;54.80;;;;;;502046;237;1321;-43
2021/08/29 06:32:48;;;;;;;;;;;25.10;54.80;;;;;;501882;237;1168;-43
2021/08/29 06:34:50;;;;;;;;;;;25.10;54.80;;;;;;502139;237;1163;-43
2021/08/29 06:36:51;;;;;;;;;;;25.10;54.80;;;;;;502041;237;1674;-43
2021/08/29 06:38:57;;;;;;;;;;;25.10;54.80;;;;;;502412;237;1287;-43
2021/08/29 06:40:54;;;;;;;;;;;25.10;54.80;;;;;;502044;237;1804;-43
2021/08/29 06:42:55;;;;;;;;;;;25.10;54.80;;;;;;501938;237;2132;-43
2021/08/29 06:44:56;;;;;;;;;;;25.10;54.80;;;;;;502473;237;1084;-43
2021/08/29 06:46:58;;;;;;;;;;;25.10;54.80;;;;;;502281;237;1139;-43
2021/08/29 06:48:59;;;;;;;;;;;25.10;54.80;;;;;;502062;237;1568;-43
2021/08/29 06:51:00;;;;;;;;;;;25.10;54.80;;;;;;502253;233;1550;-43
2021/08/29 06:53:02;;;;;;;;;;;25.10;54.70;;;;;;501991;237;1162;-43
2021/08/29 06:55:03;;;;;;;;;;;25.10;54.80;;;;;;502140;237;1030;-43
2021/08/29 06:57:04;;;;;;;;;;;25.10;54.90;;;;;;501846;237;1197;-43
2021/08/29 06:59:05;;;;;;;;;;;25.10;54.90;;;;;;502410;237;1166;-43
2021/08/29 07:01:07;;;;;;;;;;;25.10;54.80;;;;;;501918;237;1174;-43
2021/08/29 07:03:08;;;;;;;;;;;25.10;54.80;;;;;;501956;237;2132;-43
2021/08/29 07:05:09;;;;;;;;;;;25.10;54.80;;;;;;502179;237;1170;-43
2021/08/29 07:07:11;;;;;;;;;;;25.10;54.80;;;;;;502207;237;1198;-43
2021/08/29 07:09:12;;;;;;;;;;;25.10;54.80;;;;;;502470;237;1052;-43
2021/08/29 07:11:13;;;;;;;;;;;25.10;54.70;;;;;;502412;237;1423;-43
2021/08/29 07:13:15;;;;;;;;;;;25.10;54.80;;;;;;502416;237;1107;-43
2021/08/29 07:15:16;;;;;;;;;;;25.10;54.80;;;;;;502494;237;1174;-43
2021/08/29 07:17:18;;;;;;;;;;;25.10;54.80;;;;;;502038;237;1374;-43
2021/08/29 07:19:19;;;;;;;;;;;25.10;54.80;;;;;;501984;237;1144;-43
2021/08/29 07:21:20;;;;;;;;;;;25.10;54.80;;;;;;502196;237;1453;-43
2021/08/29 07:23:22;;;;;;;;;;;25.10;54.80;;;;;;502149;237;2179;-43
2021/08/29 07:25:23;;;;;;;;;;;25.10;54.80;;;;;;502493;237;1089;-43
2021/08/29 07:27:24;;;;;;;;;;;25.10;54.80;;;;;;501941;237;1219;-43
2021/08/29 07:29:25;;;;;;;;;;;25.10;54.80;;;;;;502247;237;1029;-43
2021/08/29 07:31:27;;;;;;;;;;;25.10;54.80;;;;;;502351;236;1248;-43
2021/08/29 07:33:28;;;;;;;;;;;25.10;54.80;;;;;;502433;237;1175;-43
2021/08/29 07:35:29;;;;;;;;;;;25.10;54.80;;;;;;502223;237;1204;-43
2021/08/29 07:37:31;;;;;;;;;;;25.10;54.80;;;;;;502403;237;1619;-43
2021/08/29 07:39:32;;;;;;;;;;;25.10;54.80;;;;;;502021;237;1055;-43
2021/08/29 07:41:33;;;;;;;;;;;25.10;54.80;;;;;;501979;237;1341;-43
2021/08/29 07:43:35;;;;;;;;;;;25.10;54.80;;;;;;502002;237;2171;-43
2021/08/29 07:45:36;;;;;;;;;;;25.10;54.80;;;;;;502455;237;1233;-43
2021/08/29 07:47:37;;;;;;;;;;;25.20;54.90;;;;;;501985;237;1249;-43
2021/08/29 07:49:38;;;;;;;;;;;25.10;54.80;;;;;;502119;237;1073;-43
2021/08/29 07:51:40;;;;;;;;;;;25.10;54.80;;;;;;502227;237;1451;-43
2021/08/29 07:53:41;;;;;;;;;;;25.20;54.90;;;;;;502483;237;971;-43
2021/08/29 07:55:42;;;;;;;;;;;25.20;54.90;;;;;;502292;237;1061;-43
2021/08/29 07:57:44;;;;;;;;;;;25.20;54.90;;;;;;502074;237;1167;-43
2021/08/29 07:59:45;;;;;;;;;;;25.20;54.90;;;;;;502491;237;980;-43
2021/08/29 08:01:46;;;;;;;;;;;25.10;54.80;;;;;;502076;235;1321;-43
2021/08/29 08:03:48;;;;;;;;;;;25.10;54.80;;;;;;502084;237;2190;-43
2021/08/29 08:05:49;;;;;;;;;;;25.20;54.90;;;;;;502215;237;1174;-43
2021/08/29 08:07:52;;;;;;;;;;;25.10;54.80;;;;;;502309;237;1170;-43
2021/08/29 08:09:53;;;;;;;;;;;25.20;54.90;;;;;;501962;237;1224;-43
2021/08/29 08:11:55;;;;;;;;;;;25.10;54.80;;;;;;502151;237;1266;-42
2021/08/29 08:13:56;;;;;;;;;;;25.20;54.90;;;;;;501962;237;1267;-43
2021/08/29 08:15:57;;;;;;;;;;;25.10;54.90;;;;;;502188;237;1034;-43
2021/08/29 08:17:59;;;;;;;;;;;25.20;54.90;;;;;;501945;237;1040;-43
2021/08/29 08:20:00;;;;;;;;;;;25.20;54.90;;;;;;502024;237;1200;-43
2021/08/29 08:22:01;;;;;;;;;;;25.20;54.80;;;;;;502153;237;1347;-43
2021/08/29 08:24:02;;;;;;;;;;;25.20;54.90;;;;;;501998;237;2131;-43
2021/08/29 08:26:04;;;;;;;;;;;25.20;54.80;;;;;;501913;237;1356;-43
2021/08/29 08:28:05;;;;;;;;;;;25.20;54.90;;;;;;502210;237;1226;-43
2021/08/29 08:30:06;;;;;;;;;;;25.20;54.80;;;;;;502313;237;1098;-43
2021/08/29 08:32:08;;;;;;;;;;;25.20;54.90;;;;;;502390;237;1392;-43
2021/08/29 08:34:09;;;;;;;;;;;25.20;54.90;;;;;;502219;237;1190;-43
2021/08/29 08:36:10;;;;;;;;;;;25.20;54.90;;;;;;502138;237;1295;-43
2021/08/29 08:38:12;;;;;;;;;;;25.20;54.90;;;;;;502113;237;1184;-43
2021/08/29 08:40:13;;;;;;;;;;;25.20;54.80;;;;;;502399;237;1045;-43
2021/08/29 08:42:14;;;;;;;;;;;25.20;54.80;;;;;;502306;237;1173;-43
2021/08/29 08:44:16;;;;;;;;;;;25.20;54.90;;;;;;501990;238;2175;-43
2021/08/29 08:46:17;;;;;;;;;;;25.20;54.90;;;;;;502282;235;1187;-43
2021/08/29 08:48:18;;;;;;;;;;;25.20;54.90;;;;;;502299;237;1200;-43
2021/08/29 08:50:20;;;;;;;;;;;25.20;54.90;;;;;;501990;238;1234;-43
2021/08/29 08:52:21;;;;;;;;;;;25.20;54.90;;;;;;502151;237;1221;-43
2021/08/29 08:54:23;;;;;;;;;;;25.20;54.90;;;;;;502419;237;1045;-43
2021/08/29 08:56:24;;;;;;;;;;;25.20;54.90;;;;;;501822;235;2204;-43
2021/08/29 08:58:25;;;;;;;;;;;25.20;54.90;;;;;;501971;237;1182;-43
2021/08/29 09:00:26;;;;;;;;;;;25.20;54.90;;;;;;502204;237;1067;-43
2021/08/29 09:02:28;;;;;;;;;;;25.20;54.90;;;;;;502369;237;1358;-43
2021/08/29 09:04:29;;;;;;;;;;;25.20;54.90;;;;;;502172;237;2123;-43
2021/08/29 09:06:30;;;;;;;;;;;25.20;54.90;;;;;;502052;237;1270;-43
2021/08/29 09:08:32;;;;;;;;;;;25.20;54.90;;;;;;502403;237;1305;-43
2021/08/29 09:10:33;;;;;;;;;;;25.20;54.90;;;;;;502476;237;1089;-43
2021/08/29 09:12:34;;;;;;;;;;;25.20;54.90;;;;;;502089;237;1198;-43
2021/08/29 09:14:36;;;;;;;;;;;25.20;54.90;;;;;;501934;238;1081;-43
2021/08/29 09:16:37;;;;;;;;;;;25.30;54.90;;;;;;502181;237;1257;-43
2021/08/29 09:18:38;;;;;;;;;;;25.20;54.90;;;;;;502481;237;1278;-43
2021/08/29 09:20:40;;;;;;;;;;;25.20;54.90;;;;;;502386;237;1219;-43
2021/08/29 09:22:41;;;;;;;;;;;25.20;54.90;;;;;;501917;238;2124;-43
2021/08/29 09:24:42;;;;;;;;;;;25.20;54.90;;;;;;502461;237;982;-43
2021/08/29 09:26:44;;;;;;;;;;;25.20;54.90;;;;;;501913;238;1417;-43
2021/08/29 09:28:45;;;;;;;;;;;25.20;54.90;;;;;;501990;237;1182;-43
2021/08/29 09:30:46;;;;;;;;;;;25.20;54.90;;;;;;502588;237;1223;-43
2021/08/29 09:32:48;;;;;;;;;;;25.20;54.90;;;;;;502108;237;1180;-43
2021/08/29 09:34:49;;;;;;;;;;;25.20;54.80;;;;;;502325;237;992;-43
2021/08/29 09:36:51;;;;;;;;;;;25.20;54.80;;;;;;501990;237;1550;-43
2021/08/29 09:38:52;;;;;;;;;;;25.30;54.90;;;;;;502310;237;1156;-43
2021/08/29 09:40:54;;;;;;;;;;;25.20;54.90;;;;;;501917;237;1076;-43
2021/08/29 09:42:54;;;;;;;;;;;25.20;54.90;;;;;;501855;237;2260;-43
2021/08/29 09:44:56;;;;;;;;;;;25.20;54.90;;;;;;501983;237;1249;-43
2021/08/29 09:46:57;;;;;;;;;;;25.30;55.00;;;;;;501936;237;1322;-43
2021/08/29 09:48:58;;;;;;;;;;;25.30;54.90;;;;;;501995;237;1070;-43
2021/08/29 09:51:00;;;;;;;;;;;25.30;55.00;;;;;;501961;237;1334;-43
2021/08/29 09:53:01;;;;;;;;;;;25.20;54.90;;;;;;501885;237;1199;-43
2021/08/29 09:55:02;;;;;;;;;;;25.20;54.90;;;;;;501988;237;1108;-43
2021/08/29 09:57:03;;;;;;;;;;;25.20;54.90;;;;;;501915;237;1320;-43
2021/08/29 09:59:05;;;;;;;;;;;25.20;54.90;;;;;;501972;237;1040;-43
2021/08/29 10:01:09;;;;;;;;;;;25.20;54.90;;;;;;501905;237;1398;-43
2021/08/29 10:03:11;;;;;;;;;;;25.30;55.00;;;;;;502385;237;2115;-43
2021/08/29 10:05:12;;;;;;;;;;;25.30;55.00;;;;;;502433;237;1182;-43
2021/08/29 10:07:13;;;;;;;;;;;25.30;55.00;;;;;;502006;237;1205;-43
2021/08/29 10:09:15;;;;;;;;;;;25.30;55.00;;;;;;501976;237;1224;-43
2021/08/29 10:11:16;;;;;;;;;;;25.30;55.00;;;;;;502268;237;1149;-43
2021/08/29 10:13:17;;;;;;;;;;;25.30;55.00;;;;;;502161;237;1025;-43
2021/08/29 10:15:19;;;;;;;;;;;25.30;55.00;;;;;;502448;237;1086;-43
2021/08/29 10:17:20;;;;;;;;;;;25.30;55.00;;;;;;502316;237;1223;-43
2021/08/29 10:19:21;;;;;;;;;;;25.30;55.00;;;;;;502282;237;988;-43
2021/08/29 10:21:23;;;;;;;;;;;25.30;54.90;;;;;;501954;236;1380;-43
2021/08/29 10:23:24;;;;;;;;;;;25.30;55.00;;;;;;501895;237;2183;-43
2021/08/29 10:25:25;;;;;;;;;;;25.20;54.90;;;;;;502100;237;1113;-43
2021/08/29 10:27:26;;;;;;;;;;;25.30;55.00;;;;;;502090;237;1207;-43
2021/08/29 10:29:28;;;;;;;;;;;25.30;55.00;;;;;;502058;237;1054;-43
2021/08/29 10:31:30;;;;;;;;;;;25.30;55.00;;;;;;501926;237;1331;-43
2021/08/29 10:33:31;;;;;;;;;;;25.30;55.00;;;;;;502308;237;1257;-43
2021/08/29 10:35:32;;;;;;;;;;;25.30;55.00;;;;;;502126;237;1140;-43
2021/08/29 10:37:33;;;;;;;;;;;25.30;55.00;;;;;;501914;237;1174;-43
2021/08/29 10:39:35;;;;;;;;;;;25.30;55.00;;;;;;502080;237;1091;-43
2021/08/29 10:41:36;;;;;;;;;;;25.30;55.00;;;;;;501887;237;1355;-43
2021/08/29 10:43:39;;;;;;;;;;;25.30;55.00;;;;;;502255;237;2179;-43
2021/08/29 10:45:39;;;;;;;;;;;25.30;55.00;;;;;;502192;237;1537;-43
2021/08/29 10:47:40;;;;;;;;;;;25.30;55.00;;;;;;502123;237;1708;-43
2021/08/29 10:49:41;;;;;;;;;;;25.30;55.00;;;;;;502176;237;1037;-43
2021/08/29 10:51:43;;;;;;;;;;;25.30;55.00;;;;;;501914;237;1154;-43
2021/08/29 10:53:44;;;;;;;;;;;25.30;55.00;;;;;;501866;237;1259;-43
2021/08/29 10:55:45;;;;;;;;;;;25.30;54.90;;;;;;502202;237;1121;-43
2021/08/29 10:57:47;;;;;;;;;;;25.30;55.00;;;;;;502407;237;1236;-43
2021/08/29 10:59:48;;;;;;;;;;;25.30;54.90;;;;;;502196;237;1065;-43
2021/08/29 11:01:50;;;;;;;;;;;25.30;54.90;;;;;;502239;235;1465;-43
2021/08/29 11:03:51;;;;;;;;;;;25.30;55.00;;;;;;502426;237;2144;-43
2021/08/29 11:05:54;;;;;;;;;;;25.30;54.90;;;;;;502367;237;1273;-43
2021/08/29 11:07:54;;;;;;;;;;;25.30;55.00;;;;;;501815;237;2171;-43
2021/08/29 11:09:56;;;;;;;;;;;25.30;55.00;;;;;;502349;237;1208;-43
2021/08/29 11:11:57;;;;;;;;;;;25.30;55.00;;;;;;502333;237;1343;-43
2021/08/29 11:13:58;;;;;;;;;;;25.30;54.90;;;;;;501897;237;1141;-43
2021/08/29 11:16:00;;;;;;;;;;;25.30;54.90;;;;;;502121;237;1360;-43
2021/08/29 11:18:01;;;;;;;;;;;25.30;55.00;;;;;;502395;237;1131;-43
2021/08/29 11:20:03;;;;;;;;;;;25.30;55.00;;;;;;501993;237;1070;-43
2021/08/29 11:22:06;;;;;;;;;;;25.30;54.90;;;;;;501917;237;1342;-43
2021/08/29 11:24:05;;;;;;;;;;;25.30;55.00;;;;;;501785;237;2179;-43
2021/08/29 11:26:07;;;;;;;;;;;25.30;55.00;;;;;;502090;237;1160;-43
2021/08/29 11:28:08;;;;;;;;;;;25.30;55.00;;;;;;502355;237;1204;-43
2021/08/29 11:30:09;;;;;;;;;;;25.30;55.00;;;;;;501872;237;1225;-43
2021/08/29 11:32:11;;;;;;;;;;;25.30;55.00;;;;;;501984;237;1290;-43
2021/08/29 11:34:12;;;;;;;;;;;25.30;55.00;;;;;;502421;237;1101;-43
2021/08/29 11:36:13;;;;;;;;;;;25.30;55.00;;;;;;502247;235;1148;-43
2021/08/29 11:38:15;;;;;;;;;;;25.30;55.00;;;;;;501937;237;1185;-43
2021/08/29 11:40:16;;;;;;;;;;;25.30;55.00;;;;;;502436;237;1142;-43
2021/08/29 11:42:18;;;;;;;;;;;25.30;55.00;;;;;;501961;237;1583;-43
2021/08/29 11:44:19;;;;;;;;;;;25.30;54.90;;;;;;502104;237;2345;-43
2021/08/29 11:46:22;;;;;;;;;;;25.30;54.90;;;;;;501876;237;1185;-43
2021/08/29 11:48:22;;;;;;;;;;;25.30;54.90;;;;;;502326;237;2022;-43
2021/08/29 11:50:23;;;;;;;;;;;25.30;55.00;;;;;;502450;237;1025;-43
2021/08/29 11:52:24;;;;;;;;;;;25.30;55.00;;;;;;501918;237;1139;-43
2021/08/29 11:54:26;;;;;;;;;;;25.30;55.00;;;;;;501964;237;1499;-42
2021/08/29 11:56:29;;;;;;;;;;;25.30;55.00;;;;;;502167;234;1102;-43